Time;durP1;ratioP1;P1;durP2;ratioP2;P2;SDS_P1;SDS_P2;PMS_P1;PMS_P2;Temp;Humidity;BMP_temperature;BMP_pressure;BME280_temperature;BME280_humidity;BME280_pressure;Samples;Min_cycle;Max_cycle;Signal;HPM_P1;HPM_P2
2021/05/21 00:00:35;;;;;;;39.35;7.53;;;11.50;99.90;;;;;;5011784;28;20029;-56
2021/05/21 00:03:02;;;;;;;29.70;6.22;;;11.40;99.90;;;;;;5011159;28;20129;-58
2021/05/21 00:05:28;;;;;;;40.83;6.82;;;11.40;99.90;;;;;;5005388;28;20030;-56
2021/05/21 00:07:56;;;;;;;32.83;6.40;;;11.50;99.90;;;;;;5010789;28;20038;-57
2021/05/21 00:10:25;;;;;;;35.03;6.47;;;11.50;99.90;;;;;;5010871;28;20703;-58
2021/05/21 00:12:54;;;;;;;38.83;7.32;;;11.50;99.90;;;;;;5010423;28;20083;-57
2021/05/21 00:15:20;;;;;;;35.33;6.63;;;11.50;99.90;;;;;;5011265;28;20049;-56
2021/05/21 00:17:46;;;;;;;36.90;5.88;;;11.60;99.90;;;;;;5010255;28;20037;-58
2021/05/21 00:20:12;;;;;;;39.78;7.22;;;11.60;99.90;;;;;;5010666;28;20290;-58
2021/05/21 00:22:38;;;;;;;38.72;7.22;;;11.70;99.90;;;;;;5009810;28;20050;-58
2021/05/21 00:25:04;;;;;;;34.63;6.63;;;11.70;99.90;;;;;;5010176;28;20045;-56
2021/05/21 00:27:33;;;;;;;36.53;7.03;;;11.70;99.90;;;;;;5010334;28;20062;-56
2021/05/21 00:29:59;;;;;;;35.00;7.05;;;11.80;99.90;;;;;;5011163;28;20038;-56
2021/05/21 00:32:27;;;;;;;40.63;7.78;;;11.70;99.90;;;;;;5010003;28;20037;-57
2021/05/21 00:34:56;;;;;;;28.02;6.03;;;11.80;99.90;;;;;;4999244;28;20325;-58
2021/05/21 00:37:24;;;;;;;33.78;5.95;;;11.80;99.90;;;;;;5009916;28;20030;-56
2021/05/21 00:39:50;;;;;;;30.75;5.78;;;11.80;99.90;;;;;;5010413;28;20092;-56
2021/05/21 00:42:16;;;;;;;37.72;6.72;;;11.80;99.90;;;;;;5010402;28;20038;-57
2021/05/21 00:44:44;;;;;;;34.65;5.93;;;11.80;99.90;;;;;;5010477;28;20030;-54
2021/05/21 00:47:10;;;;;;;31.13;6.47;;;11.80;99.90;;;;;;5010394;28;20088;-57
2021/05/21 00:49:36;;;;;;;33.17;6.28;;;11.80;99.90;;;;;;5010893;28;20145;-58
2021/05/21 00:52:02;;;;;;;32.35;6.47;;;11.80;99.90;;;;;;5010421;28;20038;-57
2021/05/21 00:54:33;;;;;;;30.70;6.70;;;11.80;99.90;;;;;;5010065;28;20065;-56
2021/05/21 00:57:01;;;;;;;37.97;6.75;;;11.70;99.90;;;;;;4996116;28;20391;-57
2021/05/21 00:59:28;;;;;;;30.52;6.40;;;11.70;99.90;;;;;;5010749;28;20034;-56
2021/05/21 01:01:57;;;;;;;32.65;6.57;;;11.70;99.90;;;;;;5010407;28;20065;-58
2021/05/21 01:04:22;;;;;;;30.33;5.93;;;11.70;99.90;;;;;;5010048;28;20042;-55
2021/05/21 01:06:51;;;;;;;30.17;6.28;;;11.70;99.90;;;;;;5008290;28;20026;-57
2021/05/21 01:09:19;;;;;;;31.92;6.28;;;11.70;99.90;;;;;;5008923;28;20042;-58
2021/05/21 01:11:45;;;;;;;28.80;5.63;;;11.70;99.90;;;;;;5010790;28;20499;-58
2021/05/21 01:14:11;;;;;;;31.08;6.25;;;11.70;99.90;;;;;;5009433;28;20041;-58
2021/05/21 01:16:37;;;;;;;25.98;5.45;;;11.70;99.90;;;;;;5010710;28;20034;-57
2021/05/21 01:19:06;;;;;;;26.67;5.45;;;11.70;99.90;;;;;;5009731;28;20049;-59
2021/05/21 01:21:35;;;;;;;30.15;5.25;;;11.70;99.90;;;;;;4991131;28;20053;-54
2021/05/21 01:24:02;;;;;;;30.52;5.18;;;11.70;99.90;;;;;;5008921;28;20041;-57
2021/05/21 01:26:29;;;;;;;36.30;6.53;;;11.70;99.90;;;;;;5010344;28;20036;-57
2021/05/21 01:28:55;;;;;;;37.70;6.20;;;11.70;99.90;;;;;;5009153;28;20042;-56
2021/05/21 01:31:22;;;;;;;31.70;5.57;;;11.70;99.90;;;;;;5009769;28;20048;-56
2021/05/21 01:33:51;;;;;;;31.58;6.22;;;11.70;99.90;;;;;;5010627;28;20045;-56
2021/05/21 01:36:18;;;;;;;28.73;5.50;;;11.70;99.90;;;;;;5010149;28;20398;-58
2021/05/21 01:39:06;;;;;;;34.22;6.40;;;11.70;99.90;;;;;;5008860;28;20084;-54
2021/05/21 01:41:35;;;;;;;34.53;6.80;;;11.70;99.90;;;;;;5024018;28;20052;-58
2021/05/21 01:44:03;;;;;;;33.88;6.25;;;11.70;99.90;;;;;;5009765;28;20056;-57
2021/05/21 01:46:29;;;;;;;27.27;5.18;;;11.70;99.90;;;;;;5009692;28;20121;-56
2021/05/21 01:48:58;;;;;;;24.85;4.75;;;11.70;99.90;;;;;;5010486;28;20196;-58
2021/05/21 01:51:27;;;;;;;29.05;5.13;;;11.70;99.90;;;;;;5013729;28;20057;-57
2021/05/21 01:54:13;;;;;;;29.23;5.55;;;11.70;99.90;;;;;;5012782;28;20443;-58
2021/05/21 01:56:40;;;;;;;28.45;5.60;;;11.70;99.90;;;;;;5013401;28;20038;-56
2021/05/21 01:59:06;;;;;;;24.58;4.93;;;11.70;99.90;;;;;;5013557;28;20399;-58
2021/05/21 02:01:32;;;;;;;31.63;5.55;;;11.70;99.90;;;;;;5013622;28;20038;-58
2021/05/21 02:04:02;;;;;;;31.08;6.05;;;11.70;99.90;;;;;;5000198;28;20538;-56
2021/05/21 02:06:28;;;;;;;29.45;5.82;;;11.70;99.90;;;;;;5013840;28;20153;-53
2021/05/21 02:08:56;;;;;;;32.35;5.65;;;11.70;99.90;;;;;;5012643;28;20109;-58
2021/05/21 02:11:21;;;;;;;33.80;5.82;;;11.70;99.90;;;;;;5013882;28;20053;-57
2021/05/21 02:13:47;;;;;;;33.70;6.38;;;11.70;99.90;;;;;;5012089;28;20034;-57
2021/05/21 02:16:13;;;;;;;32.13;6.75;;;11.70;99.90;;;;;;5000850;28;20113;-58
2021/05/21 02:18:39;;;;;;;27.48;5.90;;;11.70;99.90;;;;;;5012920;28;20048;-55
2021/05/21 02:21:05;;;;;;;29.88;6.15;;;11.70;99.90;;;;;;5013252;28;20046;-57
2021/05/21 02:23:32;;;;;;;24.02;5.75;;;11.70;99.90;;;;;;5012092;28;20026;-58
2021/05/21 02:25:58;;;;;;;29.17;6.22;;;11.70;99.90;;;;;;5011367;28;20068;-57
2021/05/21 02:28:23;;;;;;;29.42;6.55;;;11.60;99.90;;;;;;5012453;28;20038;-57
2021/05/21 02:30:52;;;;;;;30.05;5.57;;;11.60;99.90;;;;;;5013590;28;20034;-58
2021/05/21 02:33:18;;;;;;;29.52;6.25;;;11.60;99.90;;;;;;5012474;28;20045;-58
2021/05/21 02:35:47;;;;;;;27.60;7.00;;;11.50;99.90;;;;;;5012819;28;20173;-57
2021/05/21 02:38:12;;;;;;;31.30;5.95;;;11.60;99.90;;;;;;5010591;28;20479;-54
2021/05/21 02:40:41;;;;;;;25.00;5.85;;;11.50;99.90;;;;;;5026542;28;20129;-56
2021/05/21 02:43:07;;;;;;;26.38;5.35;;;11.50;99.90;;;;;;5021236;28;20462;-58
2021/05/21 02:45:32;;;;;;;32.85;6.38;;;11.50;99.90;;;;;;5017576;28;20121;-56
2021/05/21 02:48:01;;;;;;;32.50;6.57;;;11.50;99.90;;;;;;5012179;28;20439;-58
2021/05/21 02:50:26;;;;;;;28.98;5.85;;;11.50;99.90;;;;;;4999685;28;20052;-58
2021/05/21 02:52:52;;;;;;;28.65;6.05;;;11.60;99.90;;;;;;5012055;28;20038;-56
2021/05/21 02:55:18;;;;;;;27.58;6.05;;;11.60;99.90;;;;;;5011989;28;20128;-57
2021/05/21 02:57:46;;;;;;;30.70;5.55;;;11.60;99.90;;;;;;5012353;28;20037;-57
2021/05/21 03:00:12;;;;;;;24.58;5.10;;;11.60;99.90;;;;;;5011765;28;20061;-54
2021/05/21 03:02:38;;;;;;;26.15;6.15;;;11.60;99.90;;;;;;5012203;28;20458;-56
2021/05/21 03:05:07;;;;;;;31.88;6.10;;;11.60;99.90;;;;;;5011596;28;20049;-56
2021/05/21 03:07:33;;;;;;;28.50;5.65;;;11.60;99.90;;;;;;5012559;28;20077;-57
2021/05/21 03:10:01;;;;;;;25.75;5.15;;;11.60;99.90;;;;;;5012027;28;20057;-58
2021/05/21 03:12:29;;;;;;;26.63;5.13;;;11.60;99.90;;;;;;5012060;28;20395;-57
2021/05/21 03:14:58;;;;;;;42.67;6.28;;;11.60;99.90;;;;;;5011422;28;20053;-59
2021/05/21 03:17:31;;;;;;;23.98;4.82;;;11.60;99.90;;;;;;5011999;28;20041;-56
2021/05/21 03:19:57;;;;;;;27.88;5.10;;;11.50;99.90;;;;;;5011796;28;20503;-54
2021/05/21 03:22:26;;;;;;;32.40;6.25;;;11.50;99.90;;;;;;5012012;28;20056;-58
2021/05/21 03:24:55;;;;;;;22.15;5.57;;;11.50;99.90;;;;;;5010831;28;20121;-57
2021/05/21 03:27:21;;;;;;;26.10;5.10;;;11.50;99.90;;;;;;5021844;28;20045;-56
2021/05/21 03:29:46;;;;;;;23.95;5.75;;;11.50;99.90;;;;;;5011111;28;20068;-57
2021/05/21 03:32:12;;;;;;;21.33;4.70;;;11.50;99.90;;;;;;5012194;28;20092;-55
2021/05/21 03:34:39;;;;;;;21.48;4.93;;;11.50;99.90;;;;;;5011564;28;20042;-56
2021/05/21 03:37:05;;;;;;;30.75;6.00;;;11.50;99.90;;;;;;5012042;28;20124;-56
2021/05/21 03:39:31;;;;;;;27.05;5.13;;;11.50;99.90;;;;;;5008447;28;20022;-55
2021/05/21 03:41:56;;;;;;;30.88;6.05;;;11.50;99.90;;;;;;5012066;28;20050;-56
2021/05/21 03:44:22;;;;;;;29.00;5.13;;;11.40;99.90;;;;;;4993614;28;20061;-56
2021/05/21 03:46:48;;;;;;;31.48;5.68;;;11.50;99.90;;;;;;5012381;28;20076;-57
2021/05/21 03:49:16;;;;;;;21.23;4.70;;;11.40;99.90;;;;;;5004573;28;20061;-57
2021/05/21 03:51:41;;;;;;;19.67;4.88;;;11.40;99.90;;;;;;5012138;28;20515;-56
2021/05/21 03:54:10;;;;;;;25.67;5.15;;;11.50;99.90;;;;;;5010064;28;20109;-57
2021/05/21 03:56:36;;;;;;;24.63;5.53;;;11.50;99.90;;;;;;5011416;28;20029;-56
2021/05/21 03:59:02;;;;;;;24.48;5.32;;;11.40;99.90;;;;;;5010736;28;20112;-58
2021/05/21 04:01:28;;;;;;;22.00;5.25;;;11.40;99.90;;;;;;5011620;28;20383;-54
2021/05/21 04:03:56;;;;;;;25.02;5.95;;;11.40;99.90;;;;;;4992994;28;20038;-56
2021/05/21 04:06:21;;;;;;;23.23;5.18;;;11.40;99.90;;;;;;5011824;28;20104;-58
2021/05/21 04:08:47;;;;;;;34.22;6.15;;;11.40;99.90;;;;;;4998371;28;20116;-55
2021/05/21 04:11:13;;;;;;;28.55;5.65;;;11.40;99.90;;;;;;5012026;28;20048;-56
2021/05/21 04:13:38;;;;;;;31.70;6.35;;;11.40;99.90;;;;;;5010322;28;20038;-57
2021/05/21 04:16:04;;;;;;;25.95;6.13;;;11.40;99.90;;;;;;5012030;28;20471;-56
2021/05/21 04:18:33;;;;;;;25.45;5.43;;;11.40;99.90;;;;;;5010416;28;20041;-56
2021/05/21 04:20:58;;;;;;;27.95;5.57;;;11.50;99.90;;;;;;5011419;28;20053;-56
2021/05/21 04:23:24;;;;;;;25.88;5.72;;;11.50;99.90;;;;;;5010369;28;20064;-54
2021/05/21 04:25:53;;;;;;;25.02;5.18;;;11.40;99.90;;;;;;5010193;28;20038;-58
2021/05/21 04:28:18;;;;;;;27.08;5.80;;;11.40;99.90;;;;;;5019220;28;20480;-56
2021/05/21 04:30:47;;;;;;;26.38;5.50;;;11.40;99.90;;;;;;5010641;28;20041;-56
2021/05/21 04:33:13;;;;;;;22.35;5.15;;;11.50;99.90;;;;;;5009293;28;20096;-58
2021/05/21 04:35:38;;;;;;;21.33;4.70;;;11.50;99.90;;;;;;5010642;28;20049;-56
2021/05/21 04:38:07;;;;;;;21.23;4.95;;;11.40;99.90;;;;;;5011040;28;20109;-56
2021/05/21 04:40:35;;;;;;;21.15;5.18;;;11.40;99.90;;;;;;5014791;28;20746;-58
2021/05/21 04:43:01;;;;;;;22.27;4.82;;;11.40;99.90;;;;;;5011210;28;20480;-54
2021/05/21 04:45:26;;;;;;;25.38;5.18;;;11.50;99.90;;;;;;5010036;28;20052;-58
2021/05/21 04:47:52;;;;;;;20.45;4.53;;;11.50;99.90;;;;;;5025111;28;20463;-55
2021/05/21 04:50:18;;;;;;;29.30;7.20;;;11.50;99.90;;;;;;5009832;28;20045;-56
2021/05/21 04:52:44;;;;;;;21.90;5.22;;;11.50;99.90;;;;;;5011099;28;20049;-57
2021/05/21 04:55:10;;;;;;;22.83;4.85;;;11.50;99.90;;;;;;5009784;28;20030;-57
2021/05/21 04:57:36;;;;;;;18.92;4.30;;;11.50;99.90;;;;;;4993735;28;20124;-58
2021/05/21 05:00:03;;;;;;;23.13;4.80;;;11.60;99.90;;;;;;5008986;28;20045;-57
2021/05/21 05:02:29;;;;;;;16.45;4.07;;;11.50;99.90;;;;;;5010073;28;20045;-56
2021/05/21 05:04:57;;;;;;;25.55;4.65;;;11.60;99.90;;;;;;5009490;28;20415;-55
2021/05/21 05:07:26;;;;;;;21.27;4.65;;;11.50;99.90;;;;;;5010779;28;20092;-57
2021/05/21 05:09:51;;;;;;;21.50;4.75;;;11.50;99.90;;;;;;5009360;28;20042;-56
2021/05/21 05:12:17;;;;;;;21.27;5.03;;;11.60;99.90;;;;;;5010396;28;20037;-57
2021/05/21 05:14:46;;;;;;;19.77;4.78;;;11.50;99.90;;;;;;5010207;28;20041;-55
2021/05/21 05:17:11;;;;;;;23.60;5.10;;;11.50;99.90;;;;;;5010331;28;20033;-58
2021/05/21 05:19:37;;;;;;;23.17;5.13;;;11.50;99.90;;;;;;5010111;28;20044;-57
2021/05/21 05:22:06;;;;;;;20.20;4.20;;;11.50;99.90;;;;;;5009729;28;20914;-56
2021/05/21 05:24:35;;;;;;;28.80;5.20;;;11.50;99.90;;;;;;5011249;28;20068;-57
2021/05/21 05:27:01;;;;;;;27.90;6.07;;;11.50;99.90;;;;;;5013075;28;20038;-56
2021/05/21 05:29:29;;;;;;;21.95;4.88;;;11.50;99.90;;;;;;5013700;28;20081;-58
2021/05/21 05:31:55;;;;;;;30.35;4.90;;;11.50;99.90;;;;;;5013721;28;20484;-58
2021/05/21 05:34:20;;;;;;;22.05;5.05;;;11.50;99.90;;;;;;5000200;28;20040;-56
2021/05/21 05:36:46;;;;;;;28.25;5.47;;;11.50;99.90;;;;;;5013767;28;20856;-55
2021/05/21 05:39:12;;;;;;;22.38;4.63;;;11.40;99.90;;;;;;5012829;28;20045;-58
2021/05/21 05:41:38;;;;;;;23.23;5.43;;;11.40;99.90;;;;;;5014171;28;20399;-58
2021/05/21 05:44:06;;;;;;;24.85;5.97;;;11.40;99.90;;;;;;5012533;28;20042;-58
2021/05/21 05:46:32;;;;;;;28.33;5.88;;;11.40;99.90;;;;;;5014258;28;20042;-57
2021/05/21 05:49:01;;;;;;;27.08;5.75;;;11.40;99.90;;;;;;5012759;28;20052;-57
2021/05/21 05:51:27;;;;;;;27.80;5.55;;;11.30;99.90;;;;;;5013090;28;20050;-55
2021/05/21 05:53:52;;;;;;;28.63;5.13;;;11.30;99.90;;;;;;5022450;28;20048;-55
2021/05/21 05:56:18;;;;;;;31.20;5.80;;;11.20;99.90;;;;;;5018334;28;20116;-58
2021/05/21 05:58:44;;;;;;;30.88;6.65;;;11.30;99.90;;;;;;5013837;28;20496;-56
2021/05/21 06:01:12;;;;;;;29.98;5.43;;;11.30;99.90;;;;;;5012421;28;20136;-56
2021/05/21 06:03:38;;;;;;;34.22;6.20;;;11.40;99.90;;;;;;5013481;28;20076;-56
2021/05/21 06:06:04;;;;;;;34.40;5.50;;;11.40;99.90;;;;;;5012375;28;20069;-56
2021/05/21 06:08:34;;;;;;;26.92;4.93;;;11.50;99.90;;;;;;5013168;28;20034;-58
2021/05/21 06:10:59;;;;;;;27.42;5.50;;;11.50;99.90;;;;;;5011847;28;20069;-57
2021/05/21 06:13:26;;;;;;;25.75;4.80;;;11.60;99.90;;;;;;5013205;28;20046;-57
2021/05/21 06:15:52;;;;;;;22.13;5.10;;;11.60;99.90;;;;;;5012335;28;20444;-60
2021/05/21 06:18:18;;;;;;;20.92;4.88;;;11.60;99.90;;;;;;5013635;28;20480;-57
2021/05/21 06:20:44;;;;;;;25.23;4.78;;;11.70;99.90;;;;;;5014292;28;20052;-57
2021/05/21 06:23:13;;;;;;;20.10;4.82;;;11.80;99.90;;;;;;5011832;28;20399;-59
2021/05/21 06:28:22;;;;;;;32.92;5.63;;;11.90;99.90;;;;;;5013145;28;20426;-56
2021/05/21 06:30:51;;;;;;;24.50;5.18;;;12.00;99.90;;;;;;5012255;28;20511;-59
2021/05/21 06:33:17;;;;;;;27.63;5.07;;;12.10;99.90;;;;;;5011487;28;20034;-56
2021/05/21 06:35:47;;;;;;;23.20;5.20;;;12.10;99.90;;;;;;5010659;28;20034;-58
2021/05/21 06:38:13;;;;;;;26.48;4.75;;;12.10;99.90;;;;;;5012860;28;20044;-56
2021/05/21 06:40:38;;;;;;;30.52;4.93;;;12.20;99.90;;;;;;4994117;28;20041;-55
2021/05/21 06:43:09;;;;;;;22.90;4.80;;;12.20;99.90;;;;;;5012798;28;20042;-58
2021/05/21 06:45:39;;;;;;;20.55;4.22;;;12.20;99.90;;;;;;5012173;28;20046;-59
2021/05/21 06:48:05;;;;;;;21.75;5.20;;;12.20;99.90;;;;;;5012970;28;20514;-57
2021/05/21 06:50:31;;;;;;;16.52;3.83;;;12.30;99.90;;;;;;5011385;28;20052;-59
2021/05/21 06:53:00;;;;;;;21.73;6.13;;;12.30;99.90;;;;;;5012649;28;20072;-56
2021/05/21 06:55:26;;;;;;;17.40;3.97;;;12.30;99.90;;;;;;5011671;28;20065;-57
2021/05/21 06:57:52;;;;;;;24.42;4.38;;;12.30;99.90;;;;;;5012187;28;20049;-57
2021/05/21 07:00:18;;;;;;;22.50;4.40;;;12.30;99.90;;;;;;5011118;28;20052;-56
2021/05/21 07:02:47;;;;;;;27.45;5.47;;;12.20;99.90;;;;;;5011994;28;20045;-57
2021/05/21 07:05:13;;;;;;;23.45;4.20;;;12.20;99.90;;;;;;5010767;28;20141;-55
2021/05/21 07:07:43;;;;;;;22.02;4.13;;;12.20;99.90;;;;;;5021499;28;20060;-57
2021/05/21 07:10:09;;;;;;;20.48;4.05;;;12.10;99.90;;;;;;5011801;28;20053;-56
2021/05/21 07:12:35;;;;;;;21.98;4.88;;;12.10;99.90;;;;;;5012585;28;20042;-56
2021/05/21 07:15:05;;;;;;;22.48;4.50;;;12.10;99.90;;;;;;5010943;28;20515;-57
2021/05/21 07:17:31;;;;;;;19.65;4.22;;;12.10;99.90;;;;;;5011135;28;20076;-58
2021/05/21 07:20:00;;;;;;;21.90;4.38;;;12.00;99.90;;;;;;5010572;28;20069;-58
2021/05/21 07:22:25;;;;;;;22.02;4.25;;;12.00;99.90;;;;;;5011216;28;20054;-56
2021/05/21 07:24:54;;;;;;;18.27;4.13;;;12.10;99.90;;;;;;5010433;28;20141;-58
2021/05/21 07:27:20;;;;;;;20.05;4.72;;;12.10;99.90;;;;;;5011764;28;20052;-57
2021/05/21 07:29:49;;;;;;;25.10;4.85;;;12.00;99.90;;;;;;5011473;28;20057;-56
2021/05/21 07:32:14;;;;;;;22.50;5.25;;;12.00;99.90;;;;;;5010933;28;20155;-56
2021/05/21 07:34:40;;;;;;;18.23;4.45;;;12.00;99.90;;;;;;5010020;28;20848;-58
2021/05/21 07:37:06;;;;;;;22.67;4.38;;;12.10;99.90;;;;;;5012011;28;20049;-57
2021/05/21 07:39:34;;;;;;;24.27;4.75;;;12.10;99.90;;;;;;5020651;28;20109;-57
2021/05/21 07:42:00;;;;;;;22.83;4.43;;;12.20;99.90;;;;;;5011235;28;20492;-57
2021/05/21 07:44:26;;;;;;;21.20;5.00;;;12.20;99.90;;;;;;5010851;28;20068;-58
2021/05/21 07:46:52;;;;;;;18.98;4.28;;;12.20;99.90;;;;;;5011085;28;20232;-57
2021/05/21 07:49:22;;;;;;;21.25;4.72;;;12.20;99.90;;;;;;5011302;28;20045;-59
2021/05/21 07:51:49;;;;;;;24.15;5.28;;;12.20;99.90;;;;;;5012847;28;20038;-58
2021/05/21 07:54:16;;;;;;;23.10;4.93;;;12.30;99.90;;;;;;5016312;28;20041;-57
2021/05/21 07:56:43;;;;;;;22.40;5.15;;;12.20;99.90;;;;;;5010518;28;20045;-58
2021/05/21 07:59:10;;;;;;;23.75;4.65;;;12.20;99.90;;;;;;5011656;28;20041;-58
2021/05/21 08:01:37;;;;;;;23.67;4.57;;;12.20;99.90;;;;;;5010474;28;20377;-59
2021/05/21 08:04:03;;;;;;;22.77;4.35;;;12.30;99.90;;;;;;5011074;28;20860;-57
2021/05/21 08:06:28;;;;;;;19.25;4.70;;;12.30;99.90;;;;;;5009002;28;20045;-58
2021/05/21 08:08:54;;;;;;;24.95;4.65;;;12.30;99.90;;;;;;5009995;28;20387;-57
2021/05/21 08:11:22;;;;;;;20.58;4.45;;;12.20;99.90;;;;;;4992388;28;20045;-55
2021/05/21 08:13:48;;;;;;;20.48;4.47;;;12.40;99.90;;;;;;5009394;28;20033;-55
2021/05/21 08:16:14;;;;;;;20.40;4.40;;;12.50;99.90;;;;;;5010017;28;20502;-54
2021/05/21 08:18:43;;;;;;;19.23;4.10;;;12.40;99.90;;;;;;5009636;28;20046;-57
2021/05/21 08:21:11;;;;;;;30.75;4.72;;;12.40;99.90;;;;;;5010058;28;20053;-57
2021/05/21 08:23:40;;;;;;;23.75;4.70;;;12.50;99.90;;;;;;5007417;28;20045;-58
2021/05/21 08:26:11;;;;;;;26.98;6.63;;;12.60;99.90;;;;;;5004712;28;20172;-55
2021/05/21 08:28:38;;;;;;;20.35;4.75;;;12.60;99.90;;;;;;5004907;28;20037;-56
2021/05/21 08:31:06;;;;;;;25.30;4.22;;;12.70;99.90;;;;;;5007330;28;20033;-59
2021/05/21 08:33:39;;;;;;;16.98;4.30;;;12.70;99.90;;;;;;5008055;28;20171;-58
2021/05/21 08:36:07;;;;;;;23.95;4.43;;;12.70;99.90;;;;;;5004818;28;20056;-60
2021/05/21 08:38:33;;;;;;;15.18;3.80;;;12.80;99.90;;;;;;5005818;28;20041;-56
2021/05/21 08:41:00;;;;;;;30.63;4.28;;;12.70;99.90;;;;;;5005983;28;20173;-59
2021/05/21 08:43:33;;;;;;;20.58;4.40;;;12.90;99.90;;;;;;5006929;28;20034;-57
2021/05/21 08:46:02;;;;;;;12.50;3.38;;;12.90;99.90;;;;;;5009325;28;20041;-57
2021/05/21 08:48:28;;;;;;;17.65;3.90;;;12.90;99.90;;;;;;5010631;28;20041;-57
2021/05/21 08:50:57;;;;;;;25.85;4.00;;;12.80;99.90;;;;;;5010136;28;20038;-57
2021/05/21 08:53:28;;;;;;;19.88;4.13;;;12.80;99.90;;;;;;5008407;28;20798;-57
2021/05/21 08:55:58;;;;;;;17.50;3.60;;;12.80;99.90;;;;;;5008649;28;20112;-56
2021/05/21 08:58:24;;;;;;;17.67;3.63;;;13.00;99.90;;;;;;5009002;28;20549;-58
2021/05/21 09:00:53;;;;;;;20.50;4.18;;;13.00;99.90;;;;;;5008442;28;20034;-59
2021/05/21 09:03:33;;;;;;;19.20;3.95;;;13.00;99.90;;;;;;5007923;28;20446;-59
2021/05/21 09:06:20;;;;;;;18.17;3.38;;;13.00;99.90;;;;;;4992656;28;20038;-56
2021/05/21 09:08:47;;;;;;;16.83;3.63;;;13.00;99.90;;;;;;5015933;28;20065;-57
2021/05/21 09:11:31;;;;;;;18.92;4.00;;;13.00;99.90;;;;;;5009212;28;20049;-58
2021/05/21 09:14:20;;;;;;;17.65;3.75;;;13.10;99.90;;;;;;4993125;28;20377;-58
2021/05/21 09:16:47;;;;;;;15.52;3.38;;;13.10;99.90;;;;;;5002491;28;20034;-58
2021/05/21 09:19:14;;;;;;;23.35;4.30;;;13.10;99.90;;;;;;5010543;28;20096;-57
2021/05/21 09:21:50;;;;;;;13.90;3.38;;;13.10;99.90;;;;;;5010015;28;20073;-56
2021/05/21 09:24:22;;;;;;;27.15;4.88;;;13.10;99.90;;;;;;5009007;28;20046;-57
2021/05/21 09:26:50;;;;;;;22.70;5.13;;;13.20;99.90;;;;;;5009859;28;20037;-56
2021/05/21 09:29:19;;;;;;;19.00;3.30;;;13.20;99.90;;;;;;5011785;28;20484;-56
2021/05/21 09:31:49;;;;;;;21.85;3.92;;;13.30;99.90;;;;;;5009625;28;20137;-57
2021/05/21 09:34:35;;;;;;;19.20;3.83;;;13.30;99.90;;;;;;5012392;28;20038;-60
2021/05/21 09:37:00;;;;;;;15.85;4.10;;;13.30;99.90;;;;;;4990623;28;20042;-58
2021/05/21 09:39:26;;;;;;;19.27;4.55;;;13.40;99.90;;;;;;5020023;28;20040;-60
2021/05/21 09:41:55;;;;;;;21.45;3.80;;;13.40;99.90;;;;;;5010048;28;20041;-60
2021/05/21 09:44:22;;;;;;;20.42;4.05;;;13.40;99.90;;;;;;5008903;28;20161;-59
2021/05/21 09:46:50;;;;;;;20.67;4.05;;;13.50;99.90;;;;;;5008424;28;20034;-60
2021/05/21 09:49:39;;;;;;;12.10;3.50;;;13.40;99.90;;;;;;5009626;28;20032;-60
2021/05/21 09:52:06;;;;;;;20.50;3.53;;;13.50;99.90;;;;;;5008243;28;20057;-59
2021/05/21 09:54:55;;;;;;;15.70;3.60;;;13.50;99.90;;;;;;5004569;28;21662;-59
2021/05/21 09:57:31;;;;;;;21.67;3.60;;;13.40;99.90;;;;;;5008298;28;20475;-59
2021/05/21 10:00:00;;;;;;;14.05;3.15;;;13.50;99.90;;;;;;5009426;28;20125;-60
2021/05/21 10:02:30;;;;;;;18.63;3.60;;;13.60;99.90;;;;;;5008838;28;20088;-57
2021/05/21 10:04:58;;;;;;;15.32;3.25;;;13.60;99.90;;;;;;5010079;28;20030;-58
2021/05/21 10:07:25;;;;;;;13.98;3.60;;;13.70;99.90;;;;;;5008657;28;20478;-58
2021/05/21 10:09:51;;;;;;;16.90;3.60;;;13.60;99.90;;;;;;5009525;28;20068;-59
2021/05/21 10:12:17;;;;;;;15.80;3.65;;;13.70;99.90;;;;;;5015175;28;20108;-57
2021/05/21 10:14:53;;;;;;;15.70;4.05;;;13.60;99.90;;;;;;5011829;28;20160;-61
2021/05/21 10:17:26;;;;;;;16.83;3.75;;;13.60;99.90;;;;;;5012221;28;20033;-60
2021/05/21 10:19:54;;;;;;;16.13;2.97;;;13.50;99.90;;;;;;5013217;28;20050;-61
2021/05/21 10:22:32;;;;;;;14.90;3.30;;;13.50;99.90;;;;;;5011012;28;20054;-59
2021/05/21 10:25:10;;;;;;;13.57;3.20;;;13.30;99.90;;;;;;5011105;28;20038;-59
2021/05/21 10:27:40;;;;;;;15.65;3.50;;;13.20;99.90;;;;;;5010995;28;20118;-61
2021/05/21 10:30:07;;;;;;;17.17;3.53;;;13.20;99.90;;;;;;5012047;28;20120;-60
2021/05/21 10:32:35;;;;;;;10.07;3.00;;;13.20;99.90;;;;;;5011431;28;20073;-60
2021/05/21 10:35:18;;;;;;;15.32;3.17;;;13.30;99.90;;;;;;5013946;28;20041;-61
2021/05/21 10:37:44;;;;;;;13.80;3.13;;;13.30;99.90;;;;;;5012494;28;20435;-60
2021/05/21 10:40:32;;;;;;;12.80;2.70;;;13.40;99.90;;;;;;5012108;28;20022;-60
2021/05/21 10:42:59;;;;;;;15.82;3.08;;;13.30;99.90;;;;;;5009352;28;20060;-59
2021/05/21 10:45:25;;;;;;;14.38;3.35;;;13.30;99.90;;;;;;5018435;28;20041;-59
2021/05/21 10:48:06;;;;;;;17.42;3.63;;;13.30;99.90;;;;;;5011419;28;20130;-59
2021/05/21 10:50:37;;;;;;;16.15;3.50;;;13.30;99.90;;;;;;5013347;28;20053;-58
2021/05/21 10:53:07;;;;;;;14.75;3.25;;;13.20;99.90;;;;;;5016652;28;20046;-61
2021/05/21 10:56:02;;;;;;;12.65;3.38;;;13.30;99.90;;;;;;5012850;28;20040;-60
2021/05/21 10:58:35;;;;;;;15.33;3.80;;;13.30;99.90;;;;;;5010548;28;20052;-59
2021/05/21 11:01:04;;;;;;;15.90;3.40;;;13.10;99.90;;;;;;5011925;28;20038;-59
2021/05/21 11:03:30;;;;;;;14.82;3.35;;;13.20;99.90;;;;;;5011770;28;20041;-58
2021/05/21 11:06:19;;;;;;;11.45;2.95;;;13.30;99.90;;;;;;5012115;28;20443;-60
2021/05/21 11:08:45;;;;;;;18.23;3.85;;;13.30;99.90;;;;;;5004868;28;20108;-60
2021/05/21 11:11:15;;;;;;;20.27;4.35;;;13.40;99.90;;;;;;5010224;28;20038;-60
2021/05/21 11:13:44;;;;;;;17.75;3.95;;;13.30;99.90;;;;;;5012885;28;20030;-59
2021/05/21 11:16:11;;;;;;;17.35;3.58;;;13.20;99.90;;;;;;5011134;28;21329;-59
2021/05/21 11:18:46;;;;;;;12.65;3.33;;;13.20;99.90;;;;;;5011308;28;20038;-60
2021/05/21 11:21:17;;;;;;;;;;;13.20;99.90;;;;;;5012201;28;20296;-60
2021/05/21 11:23:45;;;;;;;15.15;3.17;;;13.10;99.90;;;;;;5001916;28;20382;-59
2021/05/21 11:26:14;;;;;;;16.90;3.70;;;13.20;99.90;;;;;;5010666;28;20049;-61
2021/05/21 11:29:00;;;;;;;18.73;3.30;;;13.20;99.90;;;;;;5012786;28;20104;-61
2021/05/21 11:31:31;;;;;;;14.20;3.40;;;13.30;99.90;;;;;;5013099;28;20044;-59
2021/05/21 11:33:59;;;;;;;22.13;4.20;;;13.20;99.90;;;;;;5015293;28;20049;-59
2021/05/21 11:36:28;;;;;;;17.52;3.42;;;13.20;99.90;;;;;;5021292;28;20758;-59
2021/05/21 11:38:54;;;;;;;19.60;4.00;;;13.20;99.90;;;;;;5010890;28;20503;-61
2021/05/21 11:41:31;;;;;;;13.90;3.00;;;13.20;99.90;;;;;;5010136;28;20050;-58
2021/05/21 11:44:05;;;;;;;17.92;3.58;;;13.10;99.90;;;;;;5010893;28;20042;-59
2021/05/21 11:46:38;;;;;;;15.40;3.63;;;13.00;99.90;;;;;;5008916;28;20116;-58
2021/05/21 11:49:18;;;;;;;22.77;3.58;;;13.00;99.90;;;;;;5010883;28;20037;-60
2021/05/21 11:51:44;;;;;;;18.65;3.55;;;12.90;99.90;;;;;;5009562;28;20040;-58
2021/05/21 11:54:10;;;;;;;19.38;3.97;;;13.00;99.90;;;;;;5011141;28;20046;-59
2021/05/21 11:56:39;;;;;;;16.60;3.35;;;13.00;99.90;;;;;;5010196;28;20042;-58
2021/05/21 11:59:12;;;;;;;19.73;4.10;;;12.90;99.90;;;;;;5011048;28;20087;-58
2021/05/21 12:01:49;;;;;;;14.68;3.17;;;12.80;99.90;;;;;;5012104;28;20033;-59
2021/05/21 12:04:15;;;;;;;16.42;3.20;;;12.80;99.90;;;;;;5010308;28;20042;-60
2021/05/21 12:06:46;;;;;;;17.77;3.35;;;12.70;99.90;;;;;;5011097;28;20124;-58
2021/05/21 12:09:13;;;;;;;15.02;3.53;;;12.70;99.90;;;;;;5011400;28;20050;-60
2021/05/21 12:11:39;;;;;;;14.30;2.90;;;12.70;99.90;;;;;;5010649;28;20042;-62
2021/05/21 12:14:08;;;;;;;17.55;3.83;;;12.70;99.90;;;;;;5013968;28;20038;-60
2021/05/21 12:16:37;;;;;;;10.20;2.30;;;12.70;99.90;;;;;;5011358;28;20456;-60
2021/05/21 12:19:07;;;;;;;14.50;2.78;;;12.70;99.90;;;;;;5019194;28;20038;-59
2021/05/21 12:21:43;;;;;;;15.45;3.35;;;12.50;99.90;;;;;;5012751;28;20050;-58
2021/05/21 12:24:11;;;;;;;9.98;2.10;;;12.50;99.90;;;;;;4991984;28;20041;-59
2021/05/21 12:26:39;;;;;;;13.05;2.38;;;12.40;99.90;;;;;;5010251;28;20041;-60
2021/05/21 12:29:07;;;;;;;12.07;2.42;;;12.40;99.90;;;;;;5010642;28;20034;-61
2021/05/21 12:31:38;;;;;;;15.13;2.58;;;12.40;99.90;;;;;;5009999;28;20120;-60
2021/05/21 12:34:05;;;;;;;10.18;2.17;;;12.40;99.90;;;;;;5009748;28;20096;-61
2021/05/21 12:36:32;;;;;;;11.80;2.30;;;12.40;99.90;;;;;;5009833;28;20034;-59
2021/05/21 12:39:06;;;;;;;11.65;2.42;;;12.40;99.90;;;;;;5009554;28;20183;-59
2021/05/21 12:41:35;;;;;;;10.68;2.25;;;12.40;99.90;;;;;;5009983;28;20072;-60
2021/05/21 12:44:15;;;;;;;15.20;2.70;;;12.50;99.90;;;;;;5010954;28;20484;-57
2021/05/21 12:46:51;;;;;;;9.65;2.22;;;12.40;99.90;;;;;;5009684;28;20026;-58